sensor_id;sensor_type;location;lat;lon;timestamp;P1;P2;P0
44350;PMS5003;62766;62.622;17.912;2023-02-15T00:00:40;4;4;
44350;PMS5003;62766;62.622;17.912;2023-02-15T00:03:08;4;4;
44350;PMS5003;62766;62.622;17.912;2023-02-15T00:05:37;6;3;
44350;PMS5003;62766;62.622;17.912;2023-02-15T00:08:07;6;6;
44350;PMS5003;62766;62.622;17.912;2023-02-15T00:10:35;3;2;
44350;PMS5003;62766;62.622;17.912;2023-02-15T00:13:03;3;2;
44350;PMS5003;62766;62.622;17.912;2023-02-15T00:15:32;6;5;
44350;PMS5003;62766;62.622;17.912;2023-02-15T00:18:00;3;3;
44350;PMS5003;62766;62.622;17.912;2023-02-15T00:20:29;6;4;
44350;PMS5003;62766;62.622;17.912;2023-02-15T00:22:58;4;4;
44350;PMS5003;62766;62.622;17.912;2023-02-15T00:25:26;3;3;
44350;PMS5003;62766;62.622;17.912;2023-02-15T00:27:54;4;4;
44350;PMS5003;62766;62.622;17.912;2023-02-15T00:30:23;3;3;
44350;PMS5003;62766;62.622;17.912;2023-02-15T00:32:51;5;3;
44350;PMS5003;62766;62.622;17.912;2023-02-15T00:35:20;3;3;
44350;PMS5003;62766;62.622;17.912;2023-02-15T00:37:49;4;3;
44350;PMS5003;62766;62.622;17.912;2023-02-15T00:40:17;3;3;
44350;PMS5003;62766;62.622;17.912;2023-02-15T00:42:45;3;3;
44350;PMS5003;62766;62.622;17.912;2023-02-15T00:45:13;2;2;
44350;PMS5003;62766;62.622;17.912;2023-02-15T00:47:42;1;1;
44350;PMS5003;62766;62.622;17.912;2023-02-15T00:50:10;3;2;
44350;PMS5003;62766;62.622;17.912;2023-02-15T00:52:39;3;3;
44350;PMS5003;62766;62.622;17.912;2023-02-15T00:55:07;4;3;
44350;PMS5003;62766;62.622;17.912;2023-02-15T00:57:36;2;2;
44350;PMS5003;62766;62.622;17.912;2023-02-15T01:00:06;2;2;
44350;PMS5003;62766;62.622;17.912;2023-02-15T01:02:36;3;2;
44350;PMS5003;62766;62.622;17.912;2023-02-15T01:05:06;2;2;
44350;PMS5003;62766;62.622;17.912;2023-02-15T01:07:35;3;3;
44350;PMS5003;62766;62.622;17.912;2023-02-15T01:10:04;5;3;
44350;PMS5003;62766;62.622;17.912;2023-02-15T01:12:33;3;3;
44350;PMS5003;62766;62.622;17.912;2023-02-15T01:15:02;4;2;
44350;PMS5003;62766;62.622;17.912;2023-02-15T01:17:30;3;3;
44350;PMS5003;62766;62.622;17.912;2023-02-15T01:19:59;2;2;
44350;PMS5003;62766;62.622;17.912;2023-02-15T01:22:27;5;5;
44350;PMS5003;62766;62.622;17.912;2023-02-15T01:24:56;6;4;
44350;PMS5003;62766;62.622;17.912;2023-02-15T01:27:24;4;3;
44350;PMS5003;62766;62.622;17.912;2023-02-15T01:29:53;5;4;
44350;PMS5003;62766;62.622;17.912;2023-02-15T01:32:21;3;3;
44350;PMS5003;62766;62.622;17.912;2023-02-15T01:34:50;2;2;
44350;PMS5003;62766;62.622;17.912;2023-02-15T01:37:18;3;3;
44350;PMS5003;62766;62.622;17.912;2023-02-15T01:39:47;5;5;
44350;PMS5003;62766;62.622;17.912;2023-02-15T01:42:20;2;2;
44350;PMS5003;62766;62.622;17.912;2023-02-15T01:44:50;3;3;
44350;PMS5003;62766;62.622;17.912;2023-02-15T01:47:22;2;2;
44350;PMS5003;62766;62.622;17.912;2023-02-15T01:49:58;3;3;
44350;PMS5003;62766;62.622;17.912;2023-02-15T01:52:32;2;2;
44350;PMS5003;62766;62.622;17.912;2023-02-15T01:55:02;2;2;
44350;PMS5003;62766;62.622;17.912;2023-02-15T01:57:32;2;2;
44350;PMS5003;62766;62.622;17.912;2023-02-15T02:00:01;2;2;
44350;PMS5003;62766;62.622;17.912;2023-02-15T02:02:33;3;3;
44350;PMS5003;62766;62.622;17.912;2023-02-15T02:05:02;5;3;
44350;PMS5003;62766;62.622;17.912;2023-02-15T02:07:36;3;3;
44350;PMS5003;62766;62.622;17.912;2023-02-15T02:10:08;6;6;
44350;PMS5003;62766;62.622;17.912;2023-02-15T02:12:39;3;3;
44350;PMS5003;62766;62.622;17.912;2023-02-15T02:15:09;3;3;
44350;PMS5003;62766;62.622;17.912;2023-02-15T02:17:40;4;4;
44350;PMS5003;62766;62.622;17.912;2023-02-15T02:20:28;4;4;
44350;PMS5003;62766;62.622;17.912;2023-02-15T02:23:16;4;4;
44350;PMS5003;62766;62.622;17.912;2023-02-15T02:30:54;3;3;
44350;PMS5003;62766;62.622;17.912;2023-02-15T02:33:41;6;4;
44350;PMS5003;62766;62.622;17.912;2023-02-15T02:36:22;3;3;
44350;PMS5003;62766;62.622;17.912;2023-02-15T02:39:04;3;3;
44350;PMS5003;62766;62.622;17.912;2023-02-15T02:41:42;4;4;
44350;PMS5003;62766;62.622;17.912;2023-02-15T02:44:18;4;4;
44350;PMS5003;62766;62.622;17.912;2023-02-15T02:46:53;3;3;
44350;PMS5003;62766;62.622;17.912;2023-02-15T02:49:30;3;2;
44350;PMS5003;62766;62.622;17.912;2023-02-15T02:52:00;5;5;
44350;PMS5003;62766;62.622;17.912;2023-02-15T02:54:30;3;3;
44350;PMS5003;62766;62.622;17.912;2023-02-15T02:57:02;4;4;
44350;PMS5003;62766;62.622;17.912;2023-02-15T02:59:34;8;8;
44350;PMS5003;62766;62.622;17.912;2023-02-15T03:02:10;5;5;
44350;PMS5003;62766;62.622;17.912;2023-02-15T03:04:42;5;3;
44350;PMS5003;62766;62.622;17.912;2023-02-15T03:07:17;1;1;
44350;PMS5003;62766;62.622;17.912;2023-02-15T03:09:51;5;3;
44350;PMS5003;62766;62.622;17.912;2023-02-15T03:12:23;3;3;
44350;PMS5003;62766;62.622;17.912;2023-02-15T03:14:55;3;3;
44350;PMS5003;62766;62.622;17.912;2023-02-15T03:17:30;2;2;
44350;PMS5003;62766;62.622;17.912;2023-02-15T03:20:02;3;2;
44350;PMS5003;62766;62.622;17.912;2023-02-15T03:22:36;2;2;
44350;PMS5003;62766;62.622;17.912;2023-02-15T03:25:10;4;4;
44350;PMS5003;62766;62.622;17.912;2023-02-15T03:27:42;5;5;
44350;PMS5003;62766;62.622;17.912;2023-02-15T03:30:13;2;2;
44350;PMS5003;62766;62.622;17.912;2023-02-15T03:32:47;4;2;
44350;PMS5003;62766;62.622;17.912;2023-02-15T03:35:17;5;4;
44350;PMS5003;62766;62.622;17.912;2023-02-15T03:37:50;4;4;
44350;PMS5003;62766;62.622;17.912;2023-02-15T03:40:23;4;4;
44350;PMS5003;62766;62.622;17.912;2023-02-15T03:42:58;3;2;
44350;PMS5003;62766;62.622;17.912;2023-02-15T03:45:34;2;2;
44350;PMS5003;62766;62.622;17.912;2023-02-15T03:48:06;3;3;
44350;PMS5003;62766;62.622;17.912;2023-02-15T03:50:35;2;2;
44350;PMS5003;62766;62.622;17.912;2023-02-15T03:53:07;2;2;
44350;PMS5003;62766;62.622;17.912;2023-02-15T03:55:40;5;3;
44350;PMS5003;62766;62.622;17.912;2023-02-15T03:58:09;2;2;
44350;PMS5003;62766;62.622;17.912;2023-02-15T04:00:38;2;2;
44350;PMS5003;62766;62.622;17.912;2023-02-15T04:03:18;3;3;
44350;PMS5003;62766;62.622;17.912;2023-02-15T04:05:52;2;2;
44350;PMS5003;62766;62.622;17.912;2023-02-15T04:08:20;3;3;
44350;PMS5003;62766;62.622;17.912;2023-02-15T04:10:49;3;3;
44350;PMS5003;62766;62.622;17.912;2023-02-15T04:13:17;3;3;
44350;PMS5003;62766;62.622;17.912;2023-02-15T04:15:46;5;3;
44350;PMS5003;62766;62.622;17.912;2023-02-15T04:18:15;4;2;
44350;PMS5003;62766;62.622;17.912;2023-02-15T04:20:43;3;3;
44350;PMS5003;62766;62.622;17.912;2023-02-15T04:23:12;5;5;
44350;PMS5003;62766;62.622;17.912;2023-02-15T04:25:40;3;3;
44350;PMS5003;62766;62.622;17.912;2023-02-15T04:28:09;4;4;
44350;PMS5003;62766;62.622;17.912;2023-02-15T04:30:37;3;3;
44350;PMS5003;62766;62.622;17.912;2023-02-15T04:33:06;3;3;
44350;PMS5003;62766;62.622;17.912;2023-02-15T04:35:35;4;4;
44350;PMS5003;62766;62.622;17.912;2023-02-15T04:38:03;3;3;
44350;PMS5003;62766;62.622;17.912;2023-02-15T04:40:32;5;3;
44350;PMS5003;62766;62.622;17.912;2023-02-15T04:43:00;2;2;
44350;PMS5003;62766;62.622;17.912;2023-02-15T04:45:29;3;2;
44350;PMS5003;62766;62.622;17.912;2023-02-15T04:47:57;3;2;
44350;PMS5003;62766;62.622;17.912;2023-02-15T04:50:26;5;3;
44350;PMS5003;62766;62.622;17.912;2023-02-15T04:52:54;4;4;
44350;PMS5003;62766;62.622;17.912;2023-02-15T04:55:23;2;2;
44350;PMS5003;62766;62.622;17.912;2023-02-15T04:57:51;4;3;
44350;PMS5003;62766;62.622;17.912;2023-02-15T05:03:34;5;3;
44350;PMS5003;62766;62.622;17.912;2023-02-15T05:06:03;4;3;
44350;PMS5003;62766;62.622;17.912;2023-02-15T05:08:33;5;4;
44350;PMS5003;62766;62.622;17.912;2023-02-15T05:11:02;5;5;
44350;PMS5003;62766;62.622;17.912;2023-02-15T05:13:31;3;3;
44350;PMS5003;62766;62.622;17.912;2023-02-15T05:16:01;5;5;
44350;PMS5003;62766;62.622;17.912;2023-02-15T05:18:29;4;3;
44350;PMS5003;62766;62.622;17.912;2023-02-15T05:20:57;2;2;
44350;PMS5003;62766;62.622;17.912;2023-02-15T05:23:26;4;4;
44350;PMS5003;62766;62.622;17.912;2023-02-15T05:25:55;5;4;
44350;PMS5003;62766;62.622;17.912;2023-02-15T05:28:23;4;4;
44350;PMS5003;62766;62.622;17.912;2023-02-15T05:30:59;2;2;
44350;PMS5003;62766;62.622;17.912;2023-02-15T05:33:33;3;3;
44350;PMS5003;62766;62.622;17.912;2023-02-15T05:36:03;5;2;
44350;PMS5003;62766;62.622;17.912;2023-02-15T05:38:31;3;3;
44350;PMS5003;62766;62.622;17.912;2023-02-15T05:41:01;3;3;
44350;PMS5003;62766;62.622;17.912;2023-02-15T05:43:30;9;9;
44350;PMS5003;62766;62.622;17.912;2023-02-15T05:46:01;3;3;
44350;PMS5003;62766;62.622;17.912;2023-02-15T05:48:29;5;3;
44350;PMS5003;62766;62.622;17.912;2023-02-15T05:51:01;6;4;
44350;PMS5003;62766;62.622;17.912;2023-02-15T05:53:31;6;6;
44350;PMS5003;62766;62.622;17.912;2023-02-15T05:56:02;5;5;
44350;PMS5003;62766;62.622;17.912;2023-02-15T05:58:33;8;6;
44350;PMS5003;62766;62.622;17.912;2023-02-15T06:01:08;8;6;
44350;PMS5003;62766;62.622;17.912;2023-02-15T06:03:37;8;6;
44350;PMS5003;62766;62.622;17.912;2023-02-15T06:06:06;10;8;
44350;PMS5003;62766;62.622;17.912;2023-02-15T06:08:35;8;8;
44350;PMS5003;62766;62.622;17.912;2023-02-15T06:11:05;15;12;
44350;PMS5003;62766;62.622;17.912;2023-02-15T06:13:34;17;13;
44350;PMS5003;62766;62.622;17.912;2023-02-15T06:16:04;19;19;
44350;PMS5003;62766;62.622;17.912;2023-02-15T06:18:33;20;17;
44350;PMS5003;62766;62.622;17.912;2023-02-15T06:21:02;19;17;
44350;PMS5003;62766;62.622;17.912;2023-02-15T06:23:31;22;22;
44350;PMS5003;62766;62.622;17.912;2023-02-15T06:26:00;16;16;
44350;PMS5003;62766;62.622;17.912;2023-02-15T06:28:28;31;31;
44350;PMS5003;62766;62.622;17.912;2023-02-15T06:30:56;55;40;
44350;PMS5003;62766;62.622;17.912;2023-02-15T06:33:24;54;45;
44350;PMS5003;62766;62.622;17.912;2023-02-15T06:35:53;34;31;
44350;PMS5003;62766;62.622;17.912;2023-02-15T06:38:22;20;19;
44350;PMS5003;62766;62.622;17.912;2023-02-15T06:40:50;27;24;
44350;PMS5003;62766;62.622;17.912;2023-02-15T06:43:19;26;21;
44350;PMS5003;62766;62.622;17.912;2023-02-15T06:45:47;22;22;
44350;PMS5003;62766;62.622;17.912;2023-02-15T06:48:17;19;19;
44350;PMS5003;62766;62.622;17.912;2023-02-15T06:50:46;28;21;
44350;PMS5003;62766;62.622;17.912;2023-02-15T06:53:15;19;19;
44350;PMS5003;62766;62.622;17.912;2023-02-15T06:55:43;21;19;
44350;PMS5003;62766;62.622;17.912;2023-02-15T06:58:12;15;15;
44350;PMS5003;62766;62.622;17.912;2023-02-15T07:00:41;17;14;
44350;PMS5003;62766;62.622;17.912;2023-02-15T07:03:09;18;17;
44350;PMS5003;62766;62.622;17.912;2023-02-15T07:05:41;26;23;
44350;PMS5003;62766;62.622;17.912;2023-02-15T07:08:10;33;31;
44350;PMS5003;62766;62.622;17.912;2023-02-15T07:10:39;30;29;
44350;PMS5003;62766;62.622;17.912;2023-02-15T07:13:10;34;33;
44350;PMS5003;62766;62.622;17.912;2023-02-15T07:15:39;36;32;
44350;PMS5003;62766;62.622;17.912;2023-02-15T07:18:06;51;44;
44350;PMS5003;62766;62.622;17.912;2023-02-15T07:20:36;21;19;
44350;PMS5003;62766;62.622;17.912;2023-02-15T07:23:06;22;19;
44350;PMS5003;62766;62.622;17.912;2023-02-15T07:25:34;16;16;
44350;PMS5003;62766;62.622;17.912;2023-02-15T07:28:03;14;14;
44350;PMS5003;62766;62.622;17.912;2023-02-15T07:30:33;14;14;
44350;PMS5003;62766;62.622;17.912;2023-02-15T07:33:02;17;13;
44350;PMS5003;62766;62.622;17.912;2023-02-15T07:35:30;126;90;
44350;PMS5003;62766;62.622;17.912;2023-02-15T07:37:59;16;11;
44350;PMS5003;62766;62.622;17.912;2023-02-15T07:40:27;8;8;
44350;PMS5003;62766;62.622;17.912;2023-02-15T07:42:57;16;16;
44350;PMS5003;62766;62.622;17.912;2023-02-15T07:45:26;23;23;
44350;PMS5003;62766;62.622;17.912;2023-02-15T07:47:55;13;13;
44350;PMS5003;62766;62.622;17.912;2023-02-15T07:50:24;16;16;
44350;PMS5003;62766;62.622;17.912;2023-02-15T07:52:53;21;18;
44350;PMS5003;62766;62.622;17.912;2023-02-15T07:55:22;19;15;
44350;PMS5003;62766;62.622;17.912;2023-02-15T07:57:51;17;16;
44350;PMS5003;62766;62.622;17.912;2023-02-15T08:00:19;14;14;
44350;PMS5003;62766;62.622;17.912;2023-02-15T08:02:49;11;11;
44350;PMS5003;62766;62.622;17.912;2023-02-15T08:05:19;12;12;
44350;PMS5003;62766;62.622;17.912;2023-02-15T08:07:47;17;16;
44350;PMS5003;62766;62.622;17.912;2023-02-15T08:10:16;20;18;
44350;PMS5003;62766;62.622;17.912;2023-02-15T08:12:45;70;67;
44350;PMS5003;62766;62.622;17.912;2023-02-15T08:15:13;22;20;
44350;PMS5003;62766;62.622;17.912;2023-02-15T08:17:41;18;17;
44350;PMS5003;62766;62.622;17.912;2023-02-15T08:20:09;22;21;
44350;PMS5003;62766;62.622;17.912;2023-02-15T08:22:38;47;42;
44350;PMS5003;62766;62.622;17.912;2023-02-15T08:25:07;11;11;
44350;PMS5003;62766;62.622;17.912;2023-02-15T08:27:35;6;6;
44350;PMS5003;62766;62.622;17.912;2023-02-15T08:30:04;14;14;
44350;PMS5003;62766;62.622;17.912;2023-02-15T08:32:33;18;18;
44350;PMS5003;62766;62.622;17.912;2023-02-15T08:35:02;11;11;
44350;PMS5003;62766;62.622;17.912;2023-02-15T08:37:33;12;12;
44350;PMS5003;62766;62.622;17.912;2023-02-15T08:40:02;13;12;
44350;PMS5003;62766;62.622;17.912;2023-02-15T08:42:32;12;7;
44350;PMS5003;62766;62.622;17.912;2023-02-15T08:45:01;7;7;
44350;PMS5003;62766;62.622;17.912;2023-02-15T08:47:29;7;7;
44350;PMS5003;62766;62.622;17.912;2023-02-15T08:49:59;9;9;
44350;PMS5003;62766;62.622;17.912;2023-02-15T08:52:28;11;11;
44350;PMS5003;62766;62.622;17.912;2023-02-15T08:54:56;13;11;
44350;PMS5003;62766;62.622;17.912;2023-02-15T08:57:25;9;9;
44350;PMS5003;62766;62.622;17.912;2023-02-15T08:59:53;7;7;
44350;PMS5003;62766;62.622;17.912;2023-02-15T09:02:22;11;9;
44350;PMS5003;62766;62.622;17.912;2023-02-15T09:04:50;13;11;
44350;PMS5003;62766;62.622;17.912;2023-02-15T09:07:19;11;11;
44350;PMS5003;62766;62.622;17.912;2023-02-15T09:09:48;11;11;
44350;PMS5003;62766;62.622;17.912;2023-02-15T09:12:16;12;12;
44350;PMS5003;62766;62.622;17.912;2023-02-15T09:14:45;15;13;
44350;PMS5003;62766;62.622;17.912;2023-02-15T09:17:13;13;10;
44350;PMS5003;62766;62.622;17.912;2023-02-15T09:19:42;15;15;
44350;PMS5003;62766;62.622;17.912;2023-02-15T09:22:10;14;12;
44350;PMS5003;62766;62.622;17.912;2023-02-15T09:24:40;13;13;
44350;PMS5003;62766;62.622;17.912;2023-02-15T09:27:09;12;12;
44350;PMS5003;62766;62.622;17.912;2023-02-15T09:29:37;14;12;
44350;PMS5003;62766;62.622;17.912;2023-02-15T09:32:05;17;16;
44350;PMS5003;62766;62.622;17.912;2023-02-15T09:34:34;20;17;
44350;PMS5003;62766;62.622;17.912;2023-02-15T09:37:04;19;18;
44350;PMS5003;62766;62.622;17.912;2023-02-15T09:39:34;18;16;
44350;PMS5003;62766;62.622;17.912;2023-02-15T09:42:11;15;15;
44350;PMS5003;62766;62.622;17.912;2023-02-15T09:44:57;24;21;
44350;PMS5003;62766;62.622;17.912;2023-02-15T09:47:40;17;15;
44350;PMS5003;62766;62.622;17.912;2023-02-15T09:50:37;17;15;
44350;PMS5003;62766;62.622;17.912;2023-02-15T09:53:21;13;12;
44350;PMS5003;62766;62.622;17.912;2023-02-15T09:56:02;15;12;
44350;PMS5003;62766;62.622;17.912;2023-02-15T09:58:40;13;12;
44350;PMS5003;62766;62.622;17.912;2023-02-15T10:01:18;13;13;
44350;PMS5003;62766;62.622;17.912;2023-02-15T10:04:02;17;16;
44350;PMS5003;62766;62.622;17.912;2023-02-15T10:06:44;13;13;
44350;PMS5003;62766;62.622;17.912;2023-02-15T10:09:29;16;14;
44350;PMS5003;62766;62.622;17.912;2023-02-15T10:12:25;18;15;
44350;PMS5003;62766;62.622;17.912;2023-02-15T10:15:15;18;17;
44350;PMS5003;62766;62.622;17.912;2023-02-15T10:17:56;26;25;
44350;PMS5003;62766;62.622;17.912;2023-02-15T10:20:36;17;15;
44350;PMS5003;62766;62.622;17.912;2023-02-15T10:23:19;18;15;
44350;PMS5003;62766;62.622;17.912;2023-02-15T10:26:04;25;24;
44350;PMS5003;62766;62.622;17.912;2023-02-15T10:28:42;16;16;
44350;PMS5003;62766;62.622;17.912;2023-02-15T10:31:19;22;21;
44350;PMS5003;62766;62.622;17.912;2023-02-15T10:33:59;21;19;
44350;PMS5003;62766;62.622;17.912;2023-02-15T10:36:44;17;16;
44350;PMS5003;62766;62.622;17.912;2023-02-15T10:39:28;12;12;
44350;PMS5003;62766;62.622;17.912;2023-02-15T10:42:12;17;17;
44350;PMS5003;62766;62.622;17.912;2023-02-15T10:44:54;12;12;
44350;PMS5003;62766;62.622;17.912;2023-02-15T10:47:38;13;13;
44350;PMS5003;62766;62.622;17.912;2023-02-15T10:50:20;13;12;
44350;PMS5003;62766;62.622;17.912;2023-02-15T10:53:00;12;12;
44350;PMS5003;62766;62.622;17.912;2023-02-15T10:55:42;9;9;
44350;PMS5003;62766;62.622;17.912;2023-02-15T10:58:23;11;8;
44350;PMS5003;62766;62.622;17.912;2023-02-15T11:03:26;8;8;
44350;PMS5003;62766;62.622;17.912;2023-02-15T11:06:05;9;8;
44350;PMS5003;62766;62.622;17.912;2023-02-15T11:08:37;6;6;
44350;PMS5003;62766;62.622;17.912;2023-02-15T11:11:12;6;4;
44350;PMS5003;62766;62.622;17.912;2023-02-15T11:13:48;8;7;
44350;PMS5003;62766;62.622;17.912;2023-02-15T11:16:22;10;9;
44350;PMS5003;62766;62.622;17.912;2023-02-15T11:18:57;8;8;
44350;PMS5003;62766;62.622;17.912;2023-02-15T11:21:30;9;9;
44350;PMS5003;62766;62.622;17.912;2023-02-15T11:24:07;9;9;
44350;PMS5003;62766;62.622;17.912;2023-02-15T11:26:41;9;8;
44350;PMS5003;62766;62.622;17.912;2023-02-15T11:29:12;10;10;
44350;PMS5003;62766;62.622;17.912;2023-02-15T11:31:47;12;12;
44350;PMS5003;62766;62.622;17.912;2023-02-15T11:34:24;10;10;
44350;PMS5003;62766;62.622;17.912;2023-02-15T11:36:54;12;11;
44350;PMS5003;62766;62.622;17.912;2023-02-15T11:39:27;9;9;
44350;PMS5003;62766;62.622;17.912;2023-02-15T11:41:59;11;11;
44350;PMS5003;62766;62.622;17.912;2023-02-15T11:44:34;11;8;
44350;PMS5003;62766;62.622;17.912;2023-02-15T11:47:07;8;8;
44350;PMS5003;62766;62.622;17.912;2023-02-15T11:49:38;10;9;
44350;PMS5003;62766;62.622;17.912;2023-02-15T11:52:07;10;10;
44350;PMS5003;62766;62.622;17.912;2023-02-15T11:54:41;7;7;
44350;PMS5003;62766;62.622;17.912;2023-02-15T11:57:12;9;8;
44350;PMS5003;62766;62.622;17.912;2023-02-15T11:59:46;15;13;
44350;PMS5003;62766;62.622;17.912;2023-02-15T12:02:22;8;8;
44350;PMS5003;62766;62.622;17.912;2023-02-15T12:04:51;7;7;
44350;PMS5003;62766;62.622;17.912;2023-02-15T12:07:23;7;7;
44350;PMS5003;62766;62.622;17.912;2023-02-15T12:09:56;11;9;
44350;PMS5003;62766;62.622;17.912;2023-02-15T12:12:31;8;8;
44350;PMS5003;62766;62.622;17.912;2023-02-15T12:15:03;14;12;
44350;PMS5003;62766;62.622;17.912;2023-02-15T12:17:33;10;9;
44350;PMS5003;62766;62.622;17.912;2023-02-15T12:20:06;13;12;
44350;PMS5003;62766;62.622;17.912;2023-02-15T12:22:53;14;14;
44350;PMS5003;62766;62.622;17.912;2023-02-15T12:25:29;12;11;
44350;PMS5003;62766;62.622;17.912;2023-02-15T12:28:03;16;16;
44350;PMS5003;62766;62.622;17.912;2023-02-15T12:30:44;15;14;
44350;PMS5003;62766;62.622;17.912;2023-02-15T12:33:15;11;11;
44350;PMS5003;62766;62.622;17.912;2023-02-15T12:35:55;16;16;
44350;PMS5003;62766;62.622;17.912;2023-02-15T12:38:27;12;9;
44350;PMS5003;62766;62.622;17.912;2023-02-15T12:40:58;9;9;
44350;PMS5003;62766;62.622;17.912;2023-02-15T12:43:29;8;8;
44350;PMS5003;62766;62.622;17.912;2023-02-15T12:46:20;11;9;
44350;PMS5003;62766;62.622;17.912;2023-02-15T12:49:04;7;7;
44350;PMS5003;62766;62.622;17.912;2023-02-15T12:51:51;13;13;
44350;PMS5003;62766;62.622;17.912;2023-02-15T12:54:25;12;12;
44350;PMS5003;62766;62.622;17.912;2023-02-15T12:56:58;13;11;
44350;PMS5003;62766;62.622;17.912;2023-02-15T12:59:28;12;10;
44350;PMS5003;62766;62.622;17.912;2023-02-15T13:01:56;13;11;
44350;PMS5003;62766;62.622;17.912;2023-02-15T13:04:26;11;11;
44350;PMS5003;62766;62.622;17.912;2023-02-15T13:06:57;16;14;
44350;PMS5003;62766;62.622;17.912;2023-02-15T13:09:35;11;11;
44350;PMS5003;62766;62.622;17.912;2023-02-15T13:12:09;15;13;
44350;PMS5003;62766;62.622;17.912;2023-02-15T13:14:44;11;10;
44350;PMS5003;62766;62.622;17.912;2023-02-15T13:17:15;15;13;
44350;PMS5003;62766;62.622;17.912;2023-02-15T13:19:44;12;12;
44350;PMS5003;62766;62.622;17.912;2023-02-15T13:22:16;11;8;
44350;PMS5003;62766;62.622;17.912;2023-02-15T13:24:50;14;11;
44350;PMS5003;62766;62.622;17.912;2023-02-15T13:27:22;14;12;
44350;PMS5003;62766;62.622;17.912;2023-02-15T13:29:54;6;6;
44350;PMS5003;62766;62.622;17.912;2023-02-15T13:32:28;12;12;
44350;PMS5003;62766;62.622;17.912;2023-02-15T13:34:59;9;9;
44350;PMS5003;62766;62.622;17.912;2023-02-15T13:37:37;16;13;
44350;PMS5003;62766;62.622;17.912;2023-02-15T13:40:20;11;11;
44350;PMS5003;62766;62.622;17.912;2023-02-15T13:42:54;13;13;
44350;PMS5003;62766;62.622;17.912;2023-02-15T13:45:30;12;12;
44350;PMS5003;62766;62.622;17.912;2023-02-15T13:48:10;13;13;
44350;PMS5003;62766;62.622;17.912;2023-02-15T13:50:54;8;8;
44350;PMS5003;62766;62.622;17.912;2023-02-15T13:53:39;11;8;
44350;PMS5003;62766;62.622;17.912;2023-02-15T13:56:17;17;16;
44350;PMS5003;62766;62.622;17.912;2023-02-15T13:58:58;15;13;
44350;PMS5003;62766;62.622;17.912;2023-02-15T14:01:42;17;17;
44350;PMS5003;62766;62.622;17.912;2023-02-15T14:04:18;19;18;
44350;PMS5003;62766;62.622;17.912;2023-02-15T14:07:35;15;12;
44350;PMS5003;62766;62.622;17.912;2023-02-15T14:10:23;15;13;
44350;PMS5003;62766;62.622;17.912;2023-02-15T14:13:10;15;15;
44350;PMS5003;62766;62.622;17.912;2023-02-15T14:17:57;19;17;
44350;PMS5003;62766;62.622;17.912;2023-02-15T14:20:36;14;14;
44350;PMS5003;62766;62.622;17.912;2023-02-15T14:23:16;16;14;
44350;PMS5003;62766;62.622;17.912;2023-02-15T14:25:58;16;15;
44350;PMS5003;62766;62.622;17.912;2023-02-15T14:28:33;15;15;
44350;PMS5003;62766;62.622;17.912;2023-02-15T14:31:11;16;15;
44350;PMS5003;62766;62.622;17.912;2023-02-15T14:33:42;13;13;
44350;PMS5003;62766;62.622;17.912;2023-02-15T14:36:15;18;17;
44350;PMS5003;62766;62.622;17.912;2023-02-15T14:38:50;13;10;
44350;PMS5003;62766;62.622;17.912;2023-02-15T14:41:34;11;9;
44350;PMS5003;62766;62.622;17.912;2023-02-15T14:44:07;13;13;
44350;PMS5003;62766;62.622;17.912;2023-02-15T14:46:42;11;11;
44350;PMS5003;62766;62.622;17.912;2023-02-15T14:49:18;19;16;
44350;PMS5003;62766;62.622;17.912;2023-02-15T14:51:57;11;11;
44350;PMS5003;62766;62.622;17.912;2023-02-15T14:55:01;14;13;
44350;PMS5003;62766;62.622;17.912;2023-02-15T14:57:31;10;9;
44350;PMS5003;62766;62.622;17.912;2023-02-15T15:00:02;12;12;
44350;PMS5003;62766;62.622;17.912;2023-02-15T15:02:57;10;10;
44350;PMS5003;62766;62.622;17.912;2023-02-15T15:05:28;11;10;
44350;PMS5003;62766;62.622;17.912;2023-02-15T15:08:02;11;10;
44350;PMS5003;62766;62.622;17.912;2023-02-15T15:10:35;14;11;
44350;PMS5003;62766;62.622;17.912;2023-02-15T15:13:55;8;8;
44350;PMS5003;62766;62.622;17.912;2023-02-15T15:16:27;13;10;
44350;PMS5003;62766;62.622;17.912;2023-02-15T15:19:01;12;9;
44350;PMS5003;62766;62.622;17.912;2023-02-15T15:22:04;9;9;
44350;PMS5003;62766;62.622;17.912;2023-02-15T15:24:49;15;13;
44350;PMS5003;62766;62.622;17.912;2023-02-15T15:27:52;10;10;
44350;PMS5003;62766;62.622;17.912;2023-02-15T15:30:54;15;13;
44350;PMS5003;62766;62.622;17.912;2023-02-15T15:33:27;12;9;
44350;PMS5003;62766;62.622;17.912;2023-02-15T15:36:22;12;12;
44350;PMS5003;62766;62.622;17.912;2023-02-15T15:39:12;10;10;
44350;PMS5003;62766;62.622;17.912;2023-02-15T15:42:01;8;8;
44350;PMS5003;62766;62.622;17.912;2023-02-15T15:44:48;9;9;
44350;PMS5003;62766;62.622;17.912;2023-02-15T15:47:35;8;8;
44350;PMS5003;62766;62.622;17.912;2023-02-15T15:50:15;8;8;
44350;PMS5003;62766;62.622;17.912;2023-02-15T15:52:46;7;7;
44350;PMS5003;62766;62.622;17.912;2023-02-15T15:55:19;11;7;
44350;PMS5003;62766;62.622;17.912;2023-02-15T15:57:51;11;9;
44350;PMS5003;62766;62.622;17.912;2023-02-15T16:00:28;7;7;
44350;PMS5003;62766;62.622;17.912;2023-02-15T16:03:03;6;6;
44350;PMS5003;62766;62.622;17.912;2023-02-15T16:05:36;7;6;
44350;PMS5003;62766;62.622;17.912;2023-02-15T16:08:05;8;6;
44350;PMS5003;62766;62.622;17.912;2023-02-15T16:10:34;8;5;
44350;PMS5003;62766;62.622;17.912;2023-02-15T16:13:04;7;7;
44350;PMS5003;62766;62.622;17.912;2023-02-15T16:15:35;7;7;
44350;PMS5003;62766;62.622;17.912;2023-02-15T16:18:13;8;8;
44350;PMS5003;62766;62.622;17.912;2023-02-15T16:20:48;8;8;
44350;PMS5003;62766;62.622;17.912;2023-02-15T16:23:33;8;8;
44350;PMS5003;62766;62.622;17.912;2023-02-15T16:26:38;13;13;
44350;PMS5003;62766;62.622;17.912;2023-02-15T16:29:27;8;8;
44350;PMS5003;62766;62.622;17.912;2023-02-15T16:31:59;8;8;
44350;PMS5003;62766;62.622;17.912;2023-02-15T16:34:29;14;14;
44350;PMS5003;62766;62.622;17.912;2023-02-15T16:37:14;10;8;
44350;PMS5003;62766;62.622;17.912;2023-02-15T16:39:44;6;6;
44350;PMS5003;62766;62.622;17.912;2023-02-15T16:42:14;10;10;
44350;PMS5003;62766;62.622;17.912;2023-02-15T16:44:44;7;5;
44350;PMS5003;62766;62.622;17.912;2023-02-15T16:47:15;10;10;
44350;PMS5003;62766;62.622;17.912;2023-02-15T16:49:46;11;11;
44350;PMS5003;62766;62.622;17.912;2023-02-15T16:52:19;11;10;
44350;PMS5003;62766;62.622;17.912;2023-02-15T16:54:51;20;17;
44350;PMS5003;62766;62.622;17.912;2023-02-15T16:57:25;11;11;
44350;PMS5003;62766;62.622;17.912;2023-02-15T16:59:57;7;6;
44350;PMS5003;62766;62.622;17.912;2023-02-15T17:03:21;9;5;
44350;PMS5003;62766;62.622;17.912;2023-02-15T17:05:51;4;4;
44350;PMS5003;62766;62.622;17.912;2023-02-15T17:08:24;6;6;
44350;PMS5003;62766;62.622;17.912;2023-02-15T17:11:12;11;10;
44350;PMS5003;62766;62.622;17.912;2023-02-15T17:14:10;5;5;